createdAt,value
2022-11-20T00:01:22.160Z,5.93
2022-11-20T00:03:50.398Z,5.28
2022-11-20T00:06:19.753Z,4.90
2022-11-20T00:08:48.368Z,5.07
2022-11-20T00:11:19.077Z,5.22
2022-11-20T00:13:48.559Z,4.85
2022-11-20T00:16:19.621Z,4.75
2022-11-20T00:18:47.738Z,4.60
2022-11-20T00:21:18.228Z,4.22
2022-11-20T00:23:46.252Z,4.18
2022-11-20T00:26:16.091Z,4.10
2022-11-20T00:28:45.599Z,4.30
2022-11-20T00:31:15.455Z,5.45
2022-11-20T00:33:44.576Z,4.03
2022-11-20T00:36:18.005Z,4.10
2022-11-20T00:38:46.023Z,4.32
2022-11-20T00:41:16.229Z,4.43
2022-11-20T00:43:43.821Z,4.15
2022-11-20T00:46:20.902Z,3.83
2022-11-20T00:48:48.948Z,4.15
2022-11-20T00:51:20.514Z,3.90
2022-11-20T00:53:48.541Z,3.67
2022-11-20T00:56:18.795Z,3.95
2022-11-20T00:58:49.087Z,3.75
2022-11-20T01:01:22.354Z,3.92
2022-11-20T01:03:51.920Z,3.80
2022-11-20T01:06:21.915Z,3.78
2022-11-20T01:08:50.781Z,3.60
2022-11-20T01:11:21.201Z,3.42
2022-11-20T01:13:52.220Z,3.83
2022-11-20T01:16:25.304Z,3.30
2022-11-20T01:18:55.192Z,3.50
2022-11-20T01:21:25.752Z,3.58
2022-11-20T01:23:53.793Z,3.83
2022-11-20T01:26:23.997Z,3.88
2022-11-20T01:28:52.049Z,4.13
2022-11-20T01:31:25.580Z,3.83
2022-11-20T01:33:55.140Z,3.28
2022-11-20T01:36:25.375Z,3.17
2022-11-20T01:38:54.406Z,2.90
2022-11-20T01:41:41.817Z,3.67
2022-11-20T01:44:12.853Z,3.30
2022-11-20T01:46:43.959Z,3.05
2022-11-20T01:49:21.293Z,3.58
2022-11-20T01:51:57.046Z,3.72
2022-11-20T01:54:31.199Z,3.38
2022-11-20T01:57:01.730Z,3.00
2022-11-20T01:59:30.738Z,3.10
2022-11-20T02:01:58.742Z,3.47
2022-11-20T02:04:26.742Z,3.03
2022-11-20T02:07:06.057Z,2.75
2022-11-20T02:09:33.510Z,5.07
2022-11-20T02:12:01.786Z,2.80
2022-11-20T02:14:29.700Z,2.90
2022-11-20T02:16:57.301Z,3.63
2022-11-20T02:19:30.923Z,2.58
2022-11-20T02:22:31.972Z,2.97
2022-11-20T02:25:03.329Z,2.42
2022-11-20T02:27:30.913Z,2.50
2022-11-20T02:30:00.498Z,2.70
2022-11-20T02:32:31.863Z,2.75
2022-11-20T02:35:07.040Z,2.70
2022-11-20T02:37:38.012Z,2.42
2022-11-20T02:40:06.306Z,2.70
2022-11-20T02:42:33.738Z,2.63
2022-11-20T02:49:55.670Z,2.30
2022-11-20T02:54:50.567Z,2.33
2022-11-20T02:57:17.985Z,2.40
2022-11-20T03:04:40.052Z,2.55
2022-11-20T03:07:10.873Z,2.67
2022-11-20T03:09:38.445Z,2.70
2022-11-20T03:14:33.459Z,2.70
2022-11-20T03:17:00.989Z,2.80
2022-11-20T03:19:28.610Z,2.55
2022-11-20T03:21:56.021Z,2.83
2022-11-20T03:29:18.095Z,2.53
2022-11-20T03:31:45.938Z,2.30
2022-11-20T03:34:13.755Z,3.33
2022-11-20T03:36:42.800Z,2.50
2022-11-20T03:39:10.991Z,2.67
2022-11-20T03:41:40.609Z,2.53
2022-11-20T03:44:10.861Z,2.70
2022-11-20T03:46:38.643Z,2.63
2022-11-20T03:49:06.564Z,3.83
2022-11-20T03:51:36.748Z,3.10
2022-11-20T03:54:08.022Z,2.78
2022-11-20T03:56:38.246Z,2.17
2022-11-20T03:59:06.239Z,2.90
2022-11-20T04:01:44.328Z,3.42
2022-11-20T04:04:15.831Z,3.00
2022-11-20T04:06:43.317Z,2.92
2022-11-20T04:09:10.865Z,2.92
2022-11-20T04:14:14.794Z,2.90
2022-11-20T04:16:42.895Z,3.30
2022-11-20T04:19:15.351Z,3.53
2022-11-20T04:21:44.114Z,3.45
2022-11-20T04:24:11.908Z,3.38
2022-11-20T04:26:39.902Z,3.78
2022-11-20T04:29:07.333Z,3.60
2022-11-20T04:34:08.145Z,3.63
2022-11-20T04:36:36.152Z,3.28
2022-11-20T04:39:06.833Z,3.17
2022-11-20T04:41:36.939Z,3.67
2022-11-20T04:44:06.682Z,3.85
2022-11-20T04:46:37.310Z,3.22
2022-11-20T04:49:05.814Z,3.42
2022-11-20T04:51:33.852Z,3.35
2022-11-20T04:54:01.422Z,3.55
2022-11-20T04:58:56.152Z,4.03
2022-11-20T05:03:52.679Z,3.60
2022-11-20T05:06:21.883Z,3.63
2022-11-20T05:08:49.782Z,3.58
2022-11-20T05:11:20.541Z,3.40
2022-11-20T05:13:48.647Z,3.70
2022-11-20T05:16:19.184Z,4.03
2022-11-20T05:18:47.353Z,3.75
2022-11-20T05:21:15.557Z,3.67
2022-11-20T05:23:44.010Z,3.63
2022-11-20T05:26:20.402Z,4.25
2022-11-20T05:28:48.359Z,4.10
2022-11-20T05:31:26.751Z,4.32
2022-11-20T05:33:56.650Z,4.40
2022-11-20T05:36:24.939Z,4.90
2022-11-20T05:38:56.670Z,4.00
2022-11-20T05:41:26.086Z,4.18
2022-11-20T05:43:53.533Z,4.00
2022-11-20T05:48:56.817Z,4.00
2022-11-20T05:51:24.709Z,3.58
2022-11-20T05:53:52.214Z,3.75
2022-11-20T05:58:49.024Z,3.05
2022-11-20T06:01:22.735Z,3.33
2022-11-20T06:03:51.925Z,3.33
2022-11-20T06:06:20.549Z,3.70
2022-11-20T06:08:48.270Z,3.60
2022-11-20T06:11:17.178Z,4.65
2022-11-20T06:13:45.592Z,3.45
2022-11-20T06:16:15.874Z,2.33
2022-11-20T06:18:43.370Z,2.10
2022-11-20T06:23:40.441Z,1.60
2022-11-20T06:26:13.869Z,1.63
2022-11-20T06:28:41.581Z,1.67
2022-11-20T06:31:12.173Z,1.50
2022-11-20T06:33:39.706Z,1.48
2022-11-20T06:38:39.261Z,1.55
2022-11-20T06:41:11.785Z,1.63
2022-11-20T06:43:39.277Z,1.70
2022-11-20T06:48:34.450Z,1.30
2022-11-20T06:53:31.341Z,1.17
2022-11-20T06:58:30.659Z,1.30
2022-11-20T07:01:06.717Z,1.60
2022-11-20T07:03:34.373Z,1.40
2022-11-20T07:06:02.501Z,1.38
2022-11-20T07:08:30.584Z,1.42
2022-11-20T07:11:02.565Z,1.60
2022-11-20T07:13:30.517Z,1.63
2022-11-20T07:16:05.710Z,1.55
2022-11-20T07:18:33.681Z,1.58
2022-11-20T07:21:06.814Z,1.80
2022-11-20T07:23:34.616Z,1.98
2022-11-20T07:26:10.302Z,1.98
2022-11-20T07:28:38.394Z,2.00
2022-11-20T07:31:07.877Z,2.33
2022-11-20T07:33:35.556Z,2.25
2022-11-20T07:38:30.738Z,2.10
2022-11-20T07:43:34.746Z,1.90
2022-11-20T07:46:05.123Z,1.98
2022-11-20T07:48:32.474Z,2.00
2022-11-20T07:53:27.314Z,2.10
2022-11-20T07:55:54.787Z,2.50
2022-11-20T08:00:50.355Z,2.45
2022-11-20T08:03:24.096Z,2.50
2022-11-20T08:05:52.227Z,2.20
2022-11-20T08:10:47.122Z,2.13
2022-11-20T08:13:33.383Z,1.98
2022-11-20T08:16:02.951Z,2.50
2022-11-20T08:18:32.053Z,2.80
2022-11-20T08:21:04.890Z,3.05
2022-11-20T08:23:32.857Z,2.88
2022-11-20T08:26:00.359Z,3.47
2022-11-20T08:28:27.810Z,4.45
2022-11-20T08:31:02.660Z,5.03
2022-11-20T08:33:31.013Z,5.25
2022-11-20T08:36:02.968Z,5.45
2022-11-20T08:38:31.576Z,4.38
2022-11-20T08:41:18.574Z,3.70
2022-11-20T08:46:13.252Z,3.58
2022-11-20T08:48:40.938Z,3.90
2022-11-20T08:51:08.352Z,3.58
2022-11-20T08:53:35.826Z,3.15
2022-11-20T08:58:31.198Z,2.83
2022-11-20T09:00:58.950Z,2.80
2022-11-20T09:03:32.646Z,2.22
2022-11-20T09:06:02.439Z,2.65
2022-11-20T09:08:30.319Z,2.55
2022-11-20T09:10:58.938Z,3.70
2022-11-20T09:13:28.119Z,2.58
2022-11-20T09:15:57.238Z,2.20
2022-11-20T09:18:25.645Z,3.45
2022-11-20T09:20:53.374Z,2.40
2022-11-20T09:23:20.891Z,3.85
2022-11-20T09:25:48.401Z,3.95
2022-11-20T09:30:43.494Z,3.20
2022-11-20T09:33:10.968Z,3.17
2022-11-20T09:35:38.709Z,3.42
2022-11-20T09:38:10.013Z,3.28
2022-11-20T09:40:44.738Z,3.20
2022-11-20T09:43:37.078Z,3.33
2022-11-20T09:46:15.831Z,2.80
2022-11-20T09:49:20.544Z,4.05
2022-11-20T09:52:06.279Z,2.95
2022-11-20T09:54:40.803Z,4.70
2022-11-20T09:57:20.341Z,3.50
2022-11-20T09:59:52.297Z,4.00
2022-11-20T10:02:25.420Z,3.55
2022-11-20T10:05:12.160Z,3.60
2022-11-20T10:07:45.729Z,4.07
2022-11-20T10:10:32.190Z,4.18
2022-11-20T10:13:36.292Z,4.05
2022-11-20T10:16:12.863Z,3.30
2022-11-20T10:18:56.362Z,3.75
2022-11-20T10:22:01.035Z,4.30
2022-11-20T10:25:12.122Z,4.47
2022-11-20T10:27:48.863Z,4.03
2022-11-20T10:30:19.790Z,3.97
2022-11-20T10:32:52.172Z,4.47
2022-11-20T10:35:23.166Z,4.43
2022-11-20T10:38:00.805Z,3.33
2022-11-20T10:40:44.297Z,4.32
2022-11-20T10:43:17.605Z,3.92
2022-11-20T10:45:58.787Z,4.05
2022-11-20T10:48:28.535Z,3.83
2022-11-20T10:51:25.411Z,4.00
2022-11-20T10:54:03.289Z,4.07
2022-11-20T10:56:46.851Z,3.30
2022-11-20T10:59:42.879Z,4.15
2022-11-20T11:02:21.406Z,5.05
2022-11-20T11:04:54.207Z,3.60
2022-11-20T11:07:30.682Z,3.80
2022-11-20T11:09:58.647Z,4.07
2022-11-20T11:12:28.475Z,3.92
2022-11-20T11:14:58.043Z,3.83
2022-11-20T11:17:28.899Z,3.88
2022-11-20T11:20:07.947Z,4.07
2022-11-20T11:22:46.083Z,3.95
2022-11-20T11:25:24.967Z,4.50
2022-11-20T11:27:53.919Z,3.28
2022-11-20T11:30:21.911Z,4.43
2022-11-20T11:32:50.222Z,3.33
2022-11-20T11:35:29.829Z,3.47
2022-11-20T11:38:06.238Z,3.67
2022-11-20T11:40:36.073Z,3.67
2022-11-20T11:43:38.102Z,3.70
2022-11-20T11:46:30.738Z,3.08
2022-11-20T11:49:04.822Z,3.30
2022-11-20T11:52:03.147Z,2.92
2022-11-20T11:54:36.505Z,3.67
2022-11-20T11:57:13.316Z,3.40
2022-11-20T11:59:56.174Z,3.40
2022-11-20T12:02:39.129Z,3.03
2022-11-20T12:05:18.802Z,3.67
2022-11-20T12:08:12.152Z,3.58
2022-11-20T12:10:52.226Z,4.10
2022-11-20T12:13:24.141Z,3.25
2022-11-20T12:15:51.706Z,3.05
2022-11-20T12:18:21.979Z,2.88
2022-11-20T12:21:01.537Z,2.90
2022-11-20T12:23:50.233Z,2.88
2022-11-20T12:26:44.746Z,3.40
2022-11-20T12:29:15.205Z,3.28
2022-11-20T12:31:58.092Z,3.45
2022-11-20T12:34:51.070Z,3.10
2022-11-20T12:37:54.089Z,3.55
2022-11-20T12:40:40.444Z,3.38
2022-11-20T12:43:53.884Z,3.15
2022-11-20T12:46:36.351Z,4.03
2022-11-20T12:49:35.293Z,3.25
2022-11-20T12:52:08.636Z,3.38
2022-11-20T12:55:15.598Z,3.50
2022-11-20T12:57:59.316Z,3.10
2022-11-20T13:00:27.168Z,3.67
2022-11-20T13:03:03.763Z,3.50
2022-11-20T13:05:42.339Z,3.88
2022-11-20T13:08:19.901Z,2.83
2022-11-20T13:11:19.576Z,4.38
2022-11-20T13:14:17.261Z,3.40
2022-11-20T13:16:53.846Z,4.10
2022-11-20T13:19:22.207Z,3.58
2022-11-20T13:21:51.476Z,3.08
2022-11-20T13:24:26.052Z,2.80
2022-11-20T13:27:18.227Z,2.85
2022-11-20T13:29:47.724Z,3.55
2022-11-20T13:32:20.977Z,3.30
2022-11-20T13:34:58.673Z,2.60
2022-11-20T13:37:37.557Z,3.17
2022-11-20T13:40:13.822Z,3.35
2022-11-20T13:42:45.678Z,3.10
2022-11-20T13:45:24.327Z,2.25
2022-11-20T13:47:53.333Z,2.78
2022-11-20T13:50:39.418Z,2.63
2022-11-20T13:53:34.189Z,2.63
2022-11-20T13:56:06.369Z,3.08
2022-11-20T13:59:18.759Z,2.22
2022-11-20T14:01:47.695Z,3.05
2022-11-20T14:04:21.469Z,3.33
2022-11-20T14:06:50.376Z,3.28
2022-11-20T14:09:30.623Z,2.83
2022-11-20T14:11:58.853Z,2.97
2022-11-20T14:14:31.012Z,2.65
2022-11-20T14:17:21.284Z,2.83
2022-11-20T14:19:51.819Z,2.65
2022-11-20T14:22:23.466Z,2.65
2022-11-20T14:25:15.251Z,3.08
2022-11-20T14:27:45.091Z,2.60
2022-11-20T14:30:21.284Z,2.45
2022-11-20T14:32:49.793Z,2.63
2022-11-20T14:35:31.404Z,2.38
2022-11-20T14:37:59.640Z,2.92
2022-11-20T14:40:32.832Z,2.85
2022-11-20T14:43:00.635Z,3.10
2022-11-20T14:45:28.865Z,3.10
2022-11-20T14:47:59.306Z,3.42
2022-11-20T14:50:29.415Z,2.90
2022-11-20T14:53:01.803Z,3.45
2022-11-20T14:55:35.389Z,2.92
2022-11-20T14:58:23.192Z,2.88
2022-11-20T15:01:02.272Z,3.17
2022-11-20T15:03:38.591Z,2.55
2022-11-20T15:06:13.223Z,3.25
2022-11-20T15:08:52.206Z,2.70
2022-11-20T15:11:29.334Z,2.83
2022-11-20T15:16:25.674Z,2.85
2022-11-20T15:18:53.328Z,3.30
2022-11-20T15:21:22.210Z,2.80
2022-11-20T15:23:50.181Z,3.10
2022-11-20T15:26:29.127Z,3.88
2022-11-20T15:28:56.681Z,3.78
2022-11-20T15:31:25.209Z,3.30
2022-11-20T15:33:52.694Z,3.42
2022-11-20T15:38:47.502Z,3.70
2022-11-20T15:41:14.929Z,3.20
2022-11-20T15:43:42.480Z,3.65
2022-11-20T15:46:20.717Z,3.92
2022-11-20T15:48:54.600Z,3.83
2022-11-20T15:51:31.727Z,4.55
2022-11-20T15:56:27.522Z,4.80
2022-11-20T15:58:55.159Z,5.18
2022-11-20T16:01:23.685Z,6.22
2022-11-20T16:03:51.271Z,5.38
2022-11-20T16:06:18.921Z,6.35
2022-11-20T16:08:46.546Z,5.18
2022-11-20T16:11:16.365Z,4.57
2022-11-20T16:14:02.275Z,4.10
2022-11-20T16:16:33.413Z,4.95
2022-11-20T16:19:01.352Z,4.75
2022-11-20T16:21:32.221Z,3.95
2022-11-20T16:24:04.366Z,4.75
2022-11-20T16:26:32.976Z,4.30
2022-11-20T16:29:02.077Z,4.28
2022-11-20T16:31:30.408Z,4.15
2022-11-20T16:34:05.782Z,3.88
2022-11-20T16:36:36.082Z,3.95
2022-11-20T16:39:04.833Z,3.83
2022-11-20T16:41:34.083Z,4.57
2022-11-20T16:44:07.003Z,6.15
2022-11-20T16:46:34.524Z,4.60
2022-11-20T16:51:32.745Z,5.60
2022-11-20T16:54:03.666Z,5.32
2022-11-20T16:56:31.333Z,4.75
2022-11-20T16:59:00.449Z,4.32
2022-11-20T17:01:29.313Z,4.80
2022-11-20T17:04:07.256Z,3.97
2022-11-20T17:06:37.068Z,4.35
2022-11-20T17:09:05.099Z,4.07
2022-11-20T17:11:33.738Z,3.60
2022-11-20T17:14:04.904Z,4.03
2022-11-20T17:16:32.398Z,3.63
2022-11-20T17:21:32.509Z,3.65
2022-11-20T17:24:05.711Z,3.40
2022-11-20T17:26:34.513Z,3.47
2022-11-20T17:29:08.002Z,3.78
2022-11-20T17:31:35.650Z,3.92
2022-11-20T17:34:03.162Z,4.22
2022-11-20T17:36:31.861Z,3.90
2022-11-20T17:38:59.835Z,3.80
2022-11-20T17:41:29.041Z,4.40
2022-11-20T17:44:00.987Z,4.25
2022-11-20T17:46:32.935Z,4.43
2022-11-20T17:49:01.394Z,4.80
2022-11-20T17:51:31.317Z,4.78
2022-11-20T17:54:01.469Z,4.38
2022-11-20T17:56:54.508Z,5.35
2022-11-20T17:59:22.590Z,5.78
2022-11-20T18:01:50.098Z,6.32
2022-11-20T18:04:17.856Z,5.82
2022-11-20T18:06:45.514Z,6.05
2022-11-20T18:09:13.214Z,6.25
2022-11-20T18:11:42.269Z,5.75
2022-11-20T18:14:29.077Z,6.28
2022-11-20T18:17:14.192Z,6.38
2022-11-20T18:19:55.523Z,7.00
2022-11-20T18:22:32.404Z,7.38
2022-11-20T18:24:59.756Z,7.88
2022-11-20T18:27:27.421Z,8.10
2022-11-20T18:29:54.948Z,8.55
2022-11-20T18:32:23.139Z,7.90
2022-11-20T18:34:51.417Z,6.65
2022-11-20T18:37:19.649Z,6.13
2022-11-20T18:39:47.411Z,5.88
2022-11-20T18:42:34.942Z,5.72
2022-11-20T18:45:04.601Z,5.38
2022-11-20T18:47:37.398Z,6.13
2022-11-20T18:50:07.560Z,5.70
2022-11-20T18:52:39.893Z,5.60
2022-11-20T18:55:07.886Z,4.95
2022-11-20T18:57:35.796Z,4.95
2022-11-20T19:00:09.346Z,4.53
2022-11-20T19:02:43.075Z,4.68
2022-11-20T19:05:12.718Z,4.82
2022-11-20T19:07:40.890Z,4.88
2022-11-20T19:10:08.693Z,5.50
2022-11-20T19:12:36.178Z,5.03
2022-11-20T19:15:04.732Z,6.03
2022-11-20T19:17:33.830Z,5.15
2022-11-20T19:20:01.314Z,5.78
2022-11-20T19:24:56.021Z,6.65
2022-11-20T19:29:50.895Z,6.30
2022-11-20T19:32:18.328Z,7.15
2022-11-20T19:37:13.236Z,5.72
2022-11-20T19:39:40.709Z,6.32
2022-11-20T19:44:35.762Z,6.32
2022-11-20T19:47:08.929Z,6.00
2022-11-20T19:49:41.846Z,7.65
2022-11-20T19:52:09.554Z,8.70
2022-11-20T19:54:37.191Z,7.93
2022-11-20T19:57:04.705Z,7.15
2022-11-20T19:59:32.266Z,5.45
2022-11-20T20:01:59.703Z,5.05
2022-11-20T20:06:55.033Z,5.00
2022-11-20T20:09:23.939Z,5.22
2022-11-20T20:11:51.478Z,4.22
2022-11-20T20:16:46.907Z,3.75
2022-11-20T20:19:16.084Z,4.13
2022-11-20T20:21:44.428Z,4.78
2022-11-20T20:24:12.576Z,5.00
2022-11-20T20:26:40.495Z,5.07
2022-11-20T20:29:08.164Z,5.38
2022-11-20T20:31:35.870Z,4.60
2022-11-20T20:34:05.474Z,4.68
2022-11-20T20:36:33.291Z,4.25
2022-11-20T20:39:02.823Z,5.40
2022-11-20T20:41:30.855Z,5.05
2022-11-20T20:44:16.846Z,5.43
2022-11-20T20:46:44.484Z,5.25
2022-11-20T20:49:12.120Z,5.80
2022-11-20T20:51:39.593Z,5.38
2022-11-20T20:56:34.419Z,5.45
2022-11-20T20:59:03.009Z,5.75
2022-11-20T21:01:30.838Z,5.18
2022-11-20T21:03:58.712Z,6.18
2022-11-20T21:06:26.652Z,4.30
2022-11-20T21:08:56.091Z,4.60
2022-11-20T21:11:23.554Z,4.57
2022-11-20T21:16:21.138Z,5.03
2022-11-20T21:18:48.997Z,5.82
2022-11-20T21:21:36.380Z,4.50
2022-11-20T21:24:04.249Z,4.40
2022-11-20T21:26:31.691Z,4.20
2022-11-20T21:28:59.150Z,4.20
2022-11-20T21:33:56.083Z,5.35
2022-11-20T21:36:26.423Z,5.50
2022-11-20T21:38:55.602Z,5.15
2022-11-20T21:41:24.299Z,5.40
2022-11-20T21:44:23.622Z,5.95
2022-11-20T21:46:42.728Z,9.40
2022-11-20T21:49:10.739Z,7.43
2022-11-20T21:51:38.235Z,6.75
2022-11-20T21:59:00.649Z,28.42
2022-11-20T22:01:30.258Z,14.80
2022-11-20T22:04:01.528Z,8.32
2022-11-20T22:06:33.971Z,9.73
2022-11-20T22:09:02.664Z,8.77
2022-11-20T22:11:30.439Z,7.90
2022-11-20T22:14:16.963Z,6.18
2022-11-20T22:16:44.657Z,5.10
2022-11-20T22:19:15.241Z,4.85
2022-11-20T22:21:43.000Z,4.30
2022-11-20T22:24:15.479Z,5.38
2022-11-20T22:26:43.710Z,5.07
2022-11-20T22:29:21.460Z,5.13
2022-11-20T22:31:51.756Z,6.95
2022-11-20T22:34:19.364Z,6.13
2022-11-20T22:36:47.113Z,5.20
2022-11-20T22:39:14.598Z,4.72
2022-11-20T22:41:42.153Z,5.03
2022-11-20T22:44:14.456Z,4.57
2022-11-20T22:46:41.854Z,4.47
2022-11-20T22:51:39.320Z,4.85
2022-11-20T22:54:07.602Z,3.83
2022-11-20T22:56:35.224Z,5.03
2022-11-20T22:59:03.177Z,4.75
2022-11-20T23:01:32.751Z,5.57
2022-11-20T23:04:05.475Z,5.20
2022-11-20T23:06:36.230Z,5.35
2022-11-20T23:09:10.141Z,5.35
2022-11-20T23:11:37.670Z,5.43
2022-11-20T23:16:40.372Z,7.07
2022-11-20T23:19:10.538Z,8.88
2022-11-20T23:21:39.926Z,7.05
2022-11-20T23:24:08.152Z,5.60
2022-11-20T23:26:38.099Z,5.32
2022-11-20T23:29:06.869Z,7.63
2022-11-20T23:31:35.631Z,9.68
2022-11-20T23:34:03.493Z,9.13
2022-11-20T23:36:31.535Z,6.03
2022-11-20T23:38:59.012Z,6.18
2022-11-20T23:41:26.462Z,5.32
2022-11-20T23:46:21.786Z,5.55
2022-11-20T23:48:49.278Z,6.18
2022-11-20T23:51:17.548Z,4.35
2022-11-20T23:53:44.945Z,4.45
2022-11-20T23:58:42.916Z,4.43
